Time,TemperatureF,DewpointF,PressureIn,WindDirection,WindDirectionDegrees,WindSpeedMPH,WindSpeedGustMPH,Humidity,HourlyPrecipIn,Conditions,Clouds,dailyrainin,SoftwareType,DateUTC
2013-03-07 00:00:00,16.0,5.0,-100.00,NE,49,6.0,10.0,62,0.00,,,0.00,,2013-03-07 09:00:00,
2013-03-07 00:33:00,16.0,5.0,-100.00,NE,49,6.0,10.0,62,0.00,,,0.00,,2013-03-07 09:33:00,
2013-03-07 00:43:00,16.0,5.0,-100.00,NE,49,6.0,10.0,62,0.00,,,0.00,,2013-03-07 09:43:00,
2013-03-07 00:52:00,16.0,5.0,-100.00,NE,49,6.0,10.0,62,0.00,,,0.00,,2013-03-07 09:52:00,
2013-03-07 01:00:00,17.0,6.0,-100.00,ENE,60,6.0,11.0,62,0.00,,,0.00,,2013-03-07 10:00:00,
2013-03-07 01:33:00,17.0,6.0,-100.00,ENE,60,6.0,11.0,62,0.00,,,0.00,,2013-03-07 10:33:00,
2013-03-07 01:43:00,17.0,6.0,-100.00,ENE,60,6.0,11.0,62,0.00,,,0.00,,2013-03-07 10:43:00,
2013-03-07 01:53:00,17.0,6.0,-100.00,ENE,60,6.0,11.0,62,0.00,,,0.00,,2013-03-07 10:53:00,
2013-03-07 02:00:00,18.0,7.0,-100.00,NE,52,6.0,12.0,62,0.00,,,0.00,,2013-03-07 11:00:00,
2013-03-07 02:34:00,18.0,7.0,-100.00,NE,52,6.0,12.0,62,0.00,,,0.00,,2013-03-07 11:34:00,
2013-03-07 02:43:00,18.0,7.0,-100.00,NE,52,6.0,12.0,62,0.00,,,0.00,,2013-03-07 11:43:00,
2013-03-07 02:54:00,18.0,7.0,-100.00,NE,52,6.0,12.0,62,0.00,,,0.00,,2013-03-07 11:54:00,
2013-03-07 03:00:00,20.0,9.0,-100.00,NE,45,7.0,13.0,61,-99.99,,,0.00,,2013-03-07 12:00:00,
2013-03-07 03:34:00,20.0,9.0,-100.00,NE,45,7.0,13.0,61,-99.99,,,0.00,,2013-03-07 12:34:00,
2013-03-07 03:43:00,20.0,9.0,-100.00,NE,45,7.0,13.0,61,-99.99,,,0.00,,2013-03-07 12:43:00,
2013-03-07 03:52:00,20.0,9.0,-100.00,NE,45,7.0,13.0,61,-99.99,,,0.00,,2013-03-07 12:52:00,
2013-03-07 04:00:00,20.0,9.0,-100.00,NE,39,7.0,16.0,61,0.00,,,0.00,,2013-03-07 13:00:00,
2013-03-07 04:33:00,20.0,9.0,-100.00,NE,39,7.0,16.0,61,0.00,,,0.00,,2013-03-07 13:33:00,
2013-03-07 04:42:00,20.0,9.0,-100.00,NE,39,7.0,16.0,61,0.00,,,0.00,,2013-03-07 13:42:00,
2013-03-07 04:53:00,20.0,9.0,-100.00,NE,39,7.0,16.0,61,0.00,,,0.00,,2013-03-07 13:53:00,
2013-03-07 05:00:00,21.0,9.0,-100.00,NE,34,8.0,15.0,58,-99.99,,,0.00,,2013-03-07 14:00:00,
2013-03-07 05:33:00,21.0,9.0,-100.00,NE,34,8.0,15.0,58,-99.99,,,0.00,,2013-03-07 14:33:00,
2013-03-07 05:43:00,21.0,9.0,-100.00,NE,34,8.0,15.0,58,-99.99,,,0.00,,2013-03-07 14:43:00,
2013-03-07 05:53:00,21.0,9.0,-100.00,NE,34,8.0,15.0,58,-99.99,,,0.00,,2013-03-07 14:53:00,
2013-03-07 06:00:00,21.0,10.0,-100.00,ENE,59,7.0,14.0,61,0.00,,,0.00,,2013-03-07 15:00:00,
2013-03-07 06:33:00,21.0,10.0,-100.00,ENE,59,7.0,14.0,61,0.00,,,0.00,,2013-03-07 15:33:00,
2013-03-07 06:43:00,21.0,10.0,-100.00,ENE,59,7.0,14.0,61,0.00,,,0.00,,2013-03-07 15:43:00,
2013-03-07 06:52:00,21.0,10.0,-100.00,ENE,59,7.0,14.0,61,0.00,,,0.00,,2013-03-07 15:52:00,
2013-03-07 07:00:00,22.0,10.0,-100.00,NE,53,8.0,16.0,59,0.00,,,0.00,,2013-03-07 16:00:00,
2013-03-07 07:33:00,22.0,10.0,-100.00,NE,53,8.0,16.0,59,0.00,,,0.00,,2013-03-07 16:33:00,
2013-03-07 07:43:00,22.0,10.0,-100.00,NE,53,8.0,16.0,59,0.00,,,0.00,,2013-03-07 16:43:00,
2013-03-07 07:53:00,22.0,10.0,-100.00,NE,53,8.0,16.0,59,0.00,,,0.00,,2013-03-07 16:53:00,
2013-03-07 08:33:00,22.0,10.0,-100.00,NE,54,9.0,16.0,59,0.00,,,0.00,,2013-03-07 17:33:00,
2013-03-07 08:44:00,22.0,10.0,-100.00,NE,54,9.0,16.0,59,0.00,,,0.00,,2013-03-07 17:44:00,
2013-03-07 08:54:00,22.0,10.0,-100.00,NE,54,9.0,16.0,59,0.00,,,0.00,,2013-03-07 17:54:00,
2013-03-07 09:00:00,25.0,11.0,-100.00,ENE,66,10.0,20.0,54,0.00,,,0.00,,2013-03-07 18:00:00,
2013-03-07 09:32:00,25.0,11.0,-100.00,ENE,66,10.0,20.0,54,0.00,,,0.00,,2013-03-07 18:32:00,
2013-03-07 09:42:00,25.0,11.0,-100.00,ENE,66,10.0,20.0,54,0.00,,,0.00,,2013-03-07 18:42:00,
2013-03-07 09:52:00,25.0,11.0,-100.00,ENE,66,10.0,20.0,54,0.00,,,0.00,,2013-03-07 18:52:00,
2013-03-07 10:00:00,26.0,12.0,-100.00,ENE,66,11.0,21.0,55,0.00,,,0.00,,2013-03-07 19:00:00,
2013-03-07 10:35:00,26.0,12.0,-100.00,ENE,66,11.0,21.0,55,0.00,,,0.00,,2013-03-07 19:35:00,
2013-03-07 10:44:00,26.0,12.0,-100.00,ENE,66,11.0,21.0,55,0.00,,,0.00,,2013-03-07 19:44:00,
2013-03-07 10:52:00,26.0,12.0,-100.00,ENE,66,11.0,21.0,55,0.00,,,0.00,,2013-03-07 19:52:00,
2013-03-07 11:00:00,27.0,12.0,-100.00,ENE,64,10.0,19.0,52,0.00,,,0.00,,2013-03-07 20:00:00,
2013-03-07 11:34:00,27.0,12.0,-100.00,ENE,64,10.0,19.0,52,0.00,,,0.00,,2013-03-07 20:34:00,
2013-03-07 11:43:00,27.0,12.0,-100.00,ENE,64,10.0,19.0,52,0.00,,,0.00,,2013-03-07 20:43:00,
2013-03-07 11:53:00,27.0,12.0,-100.00,ENE,64,10.0,19.0,52,0.00,,,0.00,,2013-03-07 20:53:00,
2013-03-07 12:33:00,36.0,12.0,-100.00,ENE,72,14.0,23.0,37,0.01,,,0.01,,2013-03-07 21:33:00,
2013-03-07 13:00:00,36.0,13.0,-100.00,ENE,69,13.0,24.0,38,-99.99,,,0.01,,2013-03-07 22:00:00,
2013-03-07 13:33:00,36.0,13.0,-100.00,ENE,69,13.0,24.0,38,-99.99,,,0.01,,2013-03-07 22:33:00,
2013-03-07 14:00:00,37.0,12.0,-100.00,ENE,76,11.0,23.0,36,0.00,,,0.01,,2013-03-07 23:00:00,
2013-03-07 14:34:00,37.0,12.0,-100.00,ENE,76,11.0,23.0,36,0.00,,,0.01,,2013-03-07 23:34:00,
2013-03-07 14:44:00,37.0,12.0,-100.00,ENE,76,11.0,23.0,36,0.00,,,0.01,,2013-03-07 23:44:00,
2013-03-07 14:53:00,37.0,12.0,-100.00,ENE,76,11.0,23.0,36,0.00,,,0.01,,2013-03-07 23:53:00,
2013-03-07 15:00:00,35.0,12.0,-100.00,East,79,12.0,23.0,38,-99.99,,,0.01,,2013-03-08 00:00:00,
2013-03-07 15:44:00,35.0,12.0,-100.00,East,79,12.0,23.0,38,-99.99,,,0.01,,2013-03-08 00:44:00,
2013-03-07 15:53:00,35.0,12.0,-100.00,East,79,12.0,23.0,38,-99.99,,,0.01,,2013-03-08 00:53:00,
2013-03-07 16:00:00,34.0,11.0,-100.00,ENE,74,14.0,24.0,38,0.00,,,0.01,,2013-03-08 01:00:00,
2013-03-07 16:33:00,34.0,11.0,-100.00,ENE,74,14.0,24.0,38,0.00,,,0.01,,2013-03-08 01:33:00,
2013-03-07 16:42:00,34.0,11.0,-100.00,ENE,74,14.0,24.0,38,0.00,,,0.01,,2013-03-08 01:42:00,
2013-03-07 16:52:00,34.0,11.0,-100.00,ENE,74,14.0,24.0,38,0.00,,,0.01,,2013-03-08 01:52:00,
2013-03-07 17:00:00,33.0,11.0,-100.00,ENE,74,14.0,22.0,39,0.00,,,0.01,,2013-03-08 02:00:00,
2013-03-07 17:32:00,33.0,11.0,-100.00,ENE,74,14.0,22.0,39,0.00,,,0.01,,2013-03-08 02:32:00,
2013-03-07 17:42:00,33.0,11.0,-100.00,ENE,74,14.0,22.0,39,0.00,,,0.01,,2013-03-08 02:42:00,
2013-03-07 18:00:00,33.0,11.0,-100.00,ENE,72,12.0,22.0,40,0.00,,,0.01,,2013-03-08 03:00:00,
2013-03-07 18:33:00,33.0,11.0,-100.00,ENE,72,12.0,22.0,40,0.00,,,0.01,,2013-03-08 03:33:00,
2013-03-07 18:43:00,33.0,11.0,-100.00,ENE,72,12.0,22.0,40,0.00,,,0.01,,2013-03-08 03:43:00,
2013-03-07 18:52:00,33.0,11.0,-100.00,ENE,72,12.0,22.0,40,0.00,,,0.01,,2013-03-08 03:52:00,
2013-03-07 19:00:00,32.0,11.0,-100.00,ENE,73,11.0,20.0,42,0.00,,,0.01,,2013-03-08 04:00:00,
2013-03-07 19:32:00,32.0,11.0,-100.00,ENE,73,11.0,20.0,42,0.00,,,0.01,,2013-03-08 04:32:00,
2013-03-07 19:42:00,32.0,11.0,-100.00,ENE,73,11.0,20.0,42,0.00,,,0.01,,2013-03-08 04:42:00,
2013-03-07 19:52:00,32.0,11.0,-100.00,ENE,73,11.0,20.0,42,0.00,,,0.01,,2013-03-08 04:52:00,
2013-03-07 20:00:00,33.0,12.0,-100.00,ENE,67,10.0,20.0,41,0.00,,,0.01,,2013-03-08 05:00:00,
2013-03-07 20:33:00,33.0,12.0,-100.00,ENE,67,10.0,20.0,41,0.00,,,0.01,,2013-03-08 05:33:00,
2013-03-07 20:42:00,33.0,12.0,-100.00,ENE,67,10.0,20.0,41,0.00,,,0.01,,2013-03-08 05:42:00,
2013-03-07 20:52:00,33.0,12.0,-100.00,ENE,67,10.0,20.0,41,0.00,,,0.01,,2013-03-08 05:52:00,
2013-03-07 21:00:00,32.0,11.0,-100.00,ENE,64,9.0,19.0,41,0.00,,,0.01,,2013-03-08 06:00:00,
2013-03-07 21:32:00,32.0,11.0,-100.00,ENE,64,9.0,19.0,41,0.00,,,0.01,,2013-03-08 06:32:00,
2013-03-07 21:42:00,32.0,11.0,-100.00,ENE,64,9.0,19.0,41,0.00,,,0.01,,2013-03-08 06:42:00,
2013-03-07 21:52:00,32.0,11.0,-100.00,ENE,64,9.0,19.0,41,0.00,,,0.01,,2013-03-08 06:52:00,
2013-03-07 22:00:00,32.0,11.0,-100.00,ENE,63,8.0,16.0,42,0.00,,,0.01,,2013-03-08 07:00:00,
2013-03-07 22:32:00,32.0,11.0,-100.00,ENE,63,8.0,16.0,42,0.00,,,0.01,,2013-03-08 07:32:00,
2013-03-07 22:42:00,32.0,11.0,-100.00,ENE,63,8.0,16.0,42,0.00,,,0.01,,2013-03-08 07:42:00,
2013-03-07 22:52:00,32.0,11.0,-100.00,ENE,63,8.0,16.0,42,0.00,,,0.01,,2013-03-08 07:52:00,
2013-03-07 23:00:00,31.0,12.0,-100.00,NE,56,7.0,14.0,45,0.00,,,0.01,,2013-03-08 08:00:00,
2013-03-07 23:32:00,31.0,12.0,-100.00,NE,56,7.0,14.0,45,0.00,,,0.01,,2013-03-08 08:32:00,
2013-03-07 23:42:00,31.0,12.0,-100.00,NE,56,7.0,14.0,45,0.00,,,0.01,,2013-03-08 08:42:00,
2013-03-07 23:52:00,31.0,12.0,-100.00,NE,56,7.0,14.0,45,0.00,,,0.01,,2013-03-08 08:52:00,